sensor_id;sensor_type;location;lat;lon;timestamp;temperature;humidity
13569;DHT22;6856;51.460;7.158;2023-04-03T00:01:20;5.90;59.70
13569;DHT22;6856;51.460;7.158;2023-04-03T00:03:54;5.60;59.60
13569;DHT22;6856;51.460;7.158;2023-04-03T00:06:30;5.60;59.70
13569;DHT22;6856;51.460;7.158;2023-04-03T00:09:04;5.50;60.30
13569;DHT22;6856;51.460;7.158;2023-04-03T00:11:41;5.50;59.70
13569;DHT22;6856;51.460;7.158;2023-04-03T00:14:14;5.50;59.80
13569;DHT22;6856;51.460;7.158;2023-04-03T00:16:48;5.50;59.80
13569;DHT22;6856;51.460;7.158;2023-04-03T00:19:22;5.50;59.90
13569;DHT22;6856;51.460;7.158;2023-04-03T00:21:57;5.40;59.90
13569;DHT22;6856;51.460;7.158;2023-04-03T00:24:31;5.40;59.90
13569;DHT22;6856;51.460;7.158;2023-04-03T00:27:05;5.40;60.00
13569;DHT22;6856;51.460;7.158;2023-04-03T00:29:39;5.40;60.70
13569;DHT22;6856;51.460;7.158;2023-04-03T00:32:14;5.40;60.00
13569;DHT22;6856;51.460;7.158;2023-04-03T00:34:47;5.30;59.90
13569;DHT22;6856;51.460;7.158;2023-04-03T00:37:22;5.30;59.90
13569;DHT22;6856;51.460;7.158;2023-04-03T00:39:56;5.30;59.90
13569;DHT22;6856;51.460;7.158;2023-04-03T00:42:30;5.30;60.00
13569;DHT22;6856;51.460;7.158;2023-04-03T00:45:25;5.20;59.90
13569;DHT22;6856;51.460;7.158;2023-04-03T00:48:04;5.20;60.00
13569;DHT22;6856;51.460;7.158;2023-04-03T00:50:41;5.20;60.00
13569;DHT22;6856;51.460;7.158;2023-04-03T00:53:23;5.20;60.00
13569;DHT22;6856;51.460;7.158;2023-04-03T00:55:59;5.10;60.00
13569;DHT22;6856;51.460;7.158;2023-04-03T00:58:37;5.10;60.00
13569;DHT22;6856;51.460;7.158;2023-04-03T01:01:17;5.10;60.00
13569;DHT22;6856;51.460;7.158;2023-04-03T01:03:55;5.10;60.00
13569;DHT22;6856;51.460;7.158;2023-04-03T01:06:30;5.10;60.10
13569;DHT22;6856;51.460;7.158;2023-04-03T01:09:10;5.00;60.10
13569;DHT22;6856;51.460;7.158;2023-04-03T01:11:44;5.00;60.00
13569;DHT22;6856;51.460;7.158;2023-04-03T01:14:17;5.00;60.20
13569;DHT22;6856;51.460;7.158;2023-04-03T01:16:53;5.00;60.40
13569;DHT22;6856;51.460;7.158;2023-04-03T01:19:27;5.00;60.50
13569;DHT22;6856;51.460;7.158;2023-04-03T01:22:14;5.00;60.60
13569;DHT22;6856;51.460;7.158;2023-04-03T01:24:54;4.90;60.80
13569;DHT22;6856;51.460;7.158;2023-04-03T01:27:28;4.90;60.80
13569;DHT22;6856;51.460;7.158;2023-04-03T01:30:03;4.90;61.00
13569;DHT22;6856;51.460;7.158;2023-04-03T01:32:39;4.90;61.20
13569;DHT22;6856;51.460;7.158;2023-04-03T01:35:13;4.90;61.30
13569;DHT22;6856;51.460;7.158;2023-04-03T01:37:47;4.90;61.50
13569;DHT22;6856;51.460;7.158;2023-04-03T01:40:21;4.90;61.90
13569;DHT22;6856;51.460;7.158;2023-04-03T01:42:55;5.00;61.70
13569;DHT22;6856;51.460;7.158;2023-04-03T01:45:29;5.00;61.80
13569;DHT22;6856;51.460;7.158;2023-04-03T01:48:05;5.00;61.80
13569;DHT22;6856;51.460;7.158;2023-04-03T01:50:39;5.00;61.80
13569;DHT22;6856;51.460;7.158;2023-04-03T01:53:13;5.00;61.90
13569;DHT22;6856;51.460;7.158;2023-04-03T01:55:49;5.00;62.00
13569;DHT22;6856;51.460;7.158;2023-04-03T01:58:22;5.00;61.90
13569;DHT22;6856;51.460;7.158;2023-04-03T02:00:56;5.00;61.90
13569;DHT22;6856;51.460;7.158;2023-04-03T02:03:31;5.00;61.90
13569;DHT22;6856;51.460;7.158;2023-04-03T02:06:06;5.00;61.90
13569;DHT22;6856;51.460;7.158;2023-04-03T02:08:41;5.00;61.90
13569;DHT22;6856;51.460;7.158;2023-04-03T02:11:15;5.00;61.80
13569;DHT22;6856;51.460;7.158;2023-04-03T02:13:48;5.00;61.80
13569;DHT22;6856;51.460;7.158;2023-04-03T02:16:21;5.00;61.80
13569;DHT22;6856;51.460;7.158;2023-04-03T02:18:57;5.10;61.90
13569;DHT22;6856;51.460;7.158;2023-04-03T02:21:31;5.00;61.80
13569;DHT22;6856;51.460;7.158;2023-04-03T02:24:05;5.10;61.80
13569;DHT22;6856;51.460;7.158;2023-04-03T02:26:40;5.10;61.90
13569;DHT22;6856;51.460;7.158;2023-04-03T02:29:14;5.10;61.80
13569;DHT22;6856;51.460;7.158;2023-04-03T02:31:48;5.00;61.70
13569;DHT22;6856;51.460;7.158;2023-04-03T02:34:23;5.00;61.60
13569;DHT22;6856;51.460;7.158;2023-04-03T02:36:57;5.10;61.60
13569;DHT22;6856;51.460;7.158;2023-04-03T02:39:32;5.00;61.40
13569;DHT22;6856;51.460;7.158;2023-04-03T02:42:06;5.00;61.60
13569;DHT22;6856;51.460;7.158;2023-04-03T02:44:40;5.00;61.50
13569;DHT22;6856;51.460;7.158;2023-04-03T02:47:14;5.00;61.50
13569;DHT22;6856;51.460;7.158;2023-04-03T02:49:50;5.10;61.50
13569;DHT22;6856;51.460;7.158;2023-04-03T02:52:24;5.00;61.40
13569;DHT22;6856;51.460;7.158;2023-04-03T02:54:58;5.00;61.50
13569;DHT22;6856;51.460;7.158;2023-04-03T02:57:32;5.00;61.50
13569;DHT22;6856;51.460;7.158;2023-04-03T03:00:08;5.00;61.50
13569;DHT22;6856;51.460;7.158;2023-04-03T03:02:43;5.00;61.60
13569;DHT22;6856;51.460;7.158;2023-04-03T03:05:18;4.90;61.50
13569;DHT22;6856;51.460;7.158;2023-04-03T03:07:52;5.00;61.40
13569;DHT22;6856;51.460;7.158;2023-04-03T03:10:27;5.00;61.30
13569;DHT22;6856;51.460;7.158;2023-04-03T03:13:01;4.90;61.40
13569;DHT22;6856;51.460;7.158;2023-04-03T03:15:34;4.90;61.40
13569;DHT22;6856;51.460;7.158;2023-04-03T03:18:08;4.90;61.40
13569;DHT22;6856;51.460;7.158;2023-04-03T03:20:43;4.90;61.30
13569;DHT22;6856;51.460;7.158;2023-04-03T03:23:17;4.90;61.40
13569;DHT22;6856;51.460;7.158;2023-04-03T03:25:55;4.90;61.40
13569;DHT22;6856;51.460;7.158;2023-04-03T03:28:30;4.90;61.50
13569;DHT22;6856;51.460;7.158;2023-04-03T03:31:04;4.80;61.60
13569;DHT22;6856;51.460;7.158;2023-04-03T03:33:39;4.80;61.50
13569;DHT22;6856;51.460;7.158;2023-04-03T03:36:15;4.80;61.50
13569;DHT22;6856;51.460;7.158;2023-04-03T03:38:48;4.80;61.50
13569;DHT22;6856;51.460;7.158;2023-04-03T03:41:22;4.80;61.50
13569;DHT22;6856;51.460;7.158;2023-04-03T03:43:57;4.80;61.60
13569;DHT22;6856;51.460;7.158;2023-04-03T03:46:31;4.80;61.60
13569;DHT22;6856;51.460;7.158;2023-04-03T03:49:04;4.70;61.40
13569;DHT22;6856;51.460;7.158;2023-04-03T03:51:40;4.80;61.50
13569;DHT22;6856;51.460;7.158;2023-04-03T03:54:14;4.70;61.40
13569;DHT22;6856;51.460;7.158;2023-04-03T03:56:48;4.70;61.40
13569;DHT22;6856;51.460;7.158;2023-04-03T03:59:22;4.70;61.30
13569;DHT22;6856;51.460;7.158;2023-04-03T04:01:56;4.70;61.40
13569;DHT22;6856;51.460;7.158;2023-04-03T04:04:30;4.70;61.40
13569;DHT22;6856;51.460;7.158;2023-04-03T04:07:06;4.60;61.30
13569;DHT22;6856;51.460;7.158;2023-04-03T04:09:40;4.60;61.30
13569;DHT22;6856;51.460;7.158;2023-04-03T04:12:14;4.60;61.40
13569;DHT22;6856;51.460;7.158;2023-04-03T04:14:48;4.60;61.40
13569;DHT22;6856;51.460;7.158;2023-04-03T04:17:21;4.60;61.40
13569;DHT22;6856;51.460;7.158;2023-04-03T04:19:55;4.60;61.30
13569;DHT22;6856;51.460;7.158;2023-04-03T04:22:30;4.60;61.40
13569;DHT22;6856;51.460;7.158;2023-04-03T04:25:04;4.60;61.30
13569;DHT22;6856;51.460;7.158;2023-04-03T04:27:39;4.50;61.50
13569;DHT22;6856;51.460;7.158;2023-04-03T04:30:13;4.50;61.30
13569;DHT22;6856;51.460;7.158;2023-04-03T04:32:47;4.50;61.50
13569;DHT22;6856;51.460;7.158;2023-04-03T04:35:21;4.60;61.50
13569;DHT22;6856;51.460;7.158;2023-04-03T04:37:57;4.50;61.50
13569;DHT22;6856;51.460;7.158;2023-04-03T04:40:31;4.50;61.50
13569;DHT22;6856;51.460;7.158;2023-04-03T04:43:05;4.50;61.60
13569;DHT22;6856;51.460;7.158;2023-04-03T04:45:39;4.50;61.60
13569;DHT22;6856;51.460;7.158;2023-04-03T04:48:13;4.40;61.70
13569;DHT22;6856;51.460;7.158;2023-04-03T04:50:47;4.40;61.50
13569;DHT22;6856;51.460;7.158;2023-04-03T04:53:23;4.40;61.40
13569;DHT22;6856;51.460;7.158;2023-04-03T04:55:57;4.40;61.50
13569;DHT22;6856;51.460;7.158;2023-04-03T04:58:31;4.40;61.60
13569;DHT22;6856;51.460;7.158;2023-04-03T05:01:07;4.40;61.70
13569;DHT22;6856;51.460;7.158;2023-04-03T05:03:43;4.40;61.80
13569;DHT22;6856;51.460;7.158;2023-04-03T05:06:16;4.40;61.70
13569;DHT22;6856;51.460;7.158;2023-04-03T05:08:51;4.50;61.80
13569;DHT22;6856;51.460;7.158;2023-04-03T05:11:26;4.30;61.70
13569;DHT22;6856;51.460;7.158;2023-04-03T05:14:02;4.40;61.80
13569;DHT22;6856;51.460;7.158;2023-04-03T05:16:38;4.30;61.70
13569;DHT22;6856;51.460;7.158;2023-04-03T05:19:11;4.30;61.70
13569;DHT22;6856;51.460;7.158;2023-04-03T05:21:45;4.30;61.60
13569;DHT22;6856;51.460;7.158;2023-04-03T05:24:21;4.30;61.70
13569;DHT22;6856;51.460;7.158;2023-04-03T05:27:00;4.30;61.70
13569;DHT22;6856;51.460;7.158;2023-04-03T05:29:34;4.40;61.90
13569;DHT22;6856;51.460;7.158;2023-04-03T05:32:08;4.30;61.60
13569;DHT22;6856;51.460;7.158;2023-04-03T05:34:43;4.30;61.80
13569;DHT22;6856;51.460;7.158;2023-04-03T05:37:17;4.30;61.80
13569;DHT22;6856;51.460;7.158;2023-04-03T05:39:52;4.30;61.80
13569;DHT22;6856;51.460;7.158;2023-04-03T05:42:26;4.30;61.80
13569;DHT22;6856;51.460;7.158;2023-04-03T05:45:00;4.30;61.70
13569;DHT22;6856;51.460;7.158;2023-04-03T05:47:34;4.30;61.90
13569;DHT22;6856;51.460;7.158;2023-04-03T05:50:08;4.40;62.00
13569;DHT22;6856;51.460;7.158;2023-04-03T05:52:45;4.30;62.00
13569;DHT22;6856;51.460;7.158;2023-04-03T05:55:23;4.30;62.00
13569;DHT22;6856;51.460;7.158;2023-04-03T05:57:58;4.40;62.10
13569;DHT22;6856;51.460;7.158;2023-04-03T06:00:32;4.40;62.20
13569;DHT22;6856;51.460;7.158;2023-04-03T06:03:06;4.40;62.20
13569;DHT22;6856;51.460;7.158;2023-04-03T06:05:40;4.40;62.30
13569;DHT22;6856;51.460;7.158;2023-04-03T06:08:15;4.40;62.30
13569;DHT22;6856;51.460;7.158;2023-04-03T06:10:50;4.50;62.40
13569;DHT22;6856;51.460;7.158;2023-04-03T06:13:24;4.50;62.40
13569;DHT22;6856;51.460;7.158;2023-04-03T06:15:58;4.50;62.50
13569;DHT22;6856;51.460;7.158;2023-04-03T06:18:32;4.60;62.60
13569;DHT22;6856;51.460;7.158;2023-04-03T06:21:06;4.60;62.60
13569;DHT22;6856;51.460;7.158;2023-04-03T06:23:40;4.80;62.70
13569;DHT22;6856;51.460;7.158;2023-04-03T06:26:17;4.60;62.50
13569;DHT22;6856;51.460;7.158;2023-04-03T06:28:50;4.70;62.50
13569;DHT22;6856;51.460;7.158;2023-04-03T06:31:24;4.70;62.40
13569;DHT22;6856;51.460;7.158;2023-04-03T06:34:02;4.80;62.40
13569;DHT22;6856;51.460;7.158;2023-04-03T06:36:40;4.80;62.30
13569;DHT22;6856;51.460;7.158;2023-04-03T06:39:16;4.80;62.30
13569;DHT22;6856;51.460;7.158;2023-04-03T06:41:54;4.90;62.30
13569;DHT22;6856;51.460;7.158;2023-04-03T06:44:28;4.90;62.10
13569;DHT22;6856;51.460;7.158;2023-04-03T06:47:02;4.90;62.10
13569;DHT22;6856;51.460;7.158;2023-04-03T06:49:37;5.00;62.10
13569;DHT22;6856;51.460;7.158;2023-04-03T06:52:10;5.00;62.10
13569;DHT22;6856;51.460;7.158;2023-04-03T06:54:45;5.00;62.00
13569;DHT22;6856;51.460;7.158;2023-04-03T06:57:20;5.10;62.00
13569;DHT22;6856;51.460;7.158;2023-04-03T06:59:55;5.10;62.00
13569;DHT22;6856;51.460;7.158;2023-04-03T07:02:28;5.20;62.00
13569;DHT22;6856;51.460;7.158;2023-04-03T07:05:02;5.20;61.80
13569;DHT22;6856;51.460;7.158;2023-04-03T07:07:37;5.30;62.00
13569;DHT22;6856;51.460;7.158;2023-04-03T07:10:10;5.30;61.80
13569;DHT22;6856;51.460;7.158;2023-04-03T07:12:45;5.40;61.70
13569;DHT22;6856;51.460;7.158;2023-04-03T07:15:19;5.50;61.70
13569;DHT22;6856;51.460;7.158;2023-04-03T07:17:53;5.50;61.60
13569;DHT22;6856;51.460;7.158;2023-04-03T07:20:27;5.60;62.20
13569;DHT22;6856;51.460;7.158;2023-04-03T07:23:01;5.70;61.50
13569;DHT22;6856;51.460;7.158;2023-04-03T07:25:35;5.70;61.20
13569;DHT22;6856;51.460;7.158;2023-04-03T07:28:11;5.80;61.10
13569;DHT22;6856;51.460;7.158;2023-04-03T07:30:47;5.80;61.00
13569;DHT22;6856;51.460;7.158;2023-04-03T07:33:23;6.20;61.20
13569;DHT22;6856;51.460;7.158;2023-04-03T07:35:57;6.00;61.00
13569;DHT22;6856;51.460;7.158;2023-04-03T07:38:32;6.10;60.60
13569;DHT22;6856;51.460;7.158;2023-04-03T07:41:11;6.20;60.50
13569;DHT22;6856;51.460;7.158;2023-04-03T07:43:48;6.20;60.40
13569;DHT22;6856;51.460;7.158;2023-04-03T07:46:24;6.30;60.20
13569;DHT22;6856;51.460;7.158;2023-04-03T07:48:58;6.30;60.10
13569;DHT22;6856;51.460;7.158;2023-04-03T07:51:32;6.70;60.90
13569;DHT22;6856;51.460;7.158;2023-04-03T07:54:06;6.50;60.00
13569;DHT22;6856;51.460;7.158;2023-04-03T07:56:40;6.60;60.10
13569;DHT22;6856;51.460;7.158;2023-04-03T07:59:17;6.70;60.10
13569;DHT22;6856;51.460;7.158;2023-04-03T08:01:51;6.70;59.70
13569;DHT22;6856;51.460;7.158;2023-04-03T08:04:25;6.80;59.50
13569;DHT22;6856;51.460;7.158;2023-04-03T08:06:59;6.90;59.40
13569;DHT22;6856;51.460;7.158;2023-04-03T08:09:32;7.00;59.30
13569;DHT22;6856;51.460;7.158;2023-04-03T08:12:06;7.10;59.30
13569;DHT22;6856;51.460;7.158;2023-04-03T08:14:44;7.20;59.20
13569;DHT22;6856;51.460;7.158;2023-04-03T08:17:18;7.30;59.10
13569;DHT22;6856;51.460;7.158;2023-04-03T08:19:51;7.30;58.70
13569;DHT22;6856;51.460;7.158;2023-04-03T08:22:25;7.40;58.50
13569;DHT22;6856;51.460;7.158;2023-04-03T08:24:59;7.50;58.30
13569;DHT22;6856;51.460;7.158;2023-04-03T08:27:33;7.50;58.10
13569;DHT22;6856;51.460;7.158;2023-04-03T08:30:11;7.60;58.00
13569;DHT22;6856;51.460;7.158;2023-04-03T08:32:45;7.60;57.60
13569;DHT22;6856;51.460;7.158;2023-04-03T08:35:19;7.70;58.00
13569;DHT22;6856;51.460;7.158;2023-04-03T08:37:53;7.80;57.30
13569;DHT22;6856;51.460;7.158;2023-04-03T08:40:26;7.80;57.20
13569;DHT22;6856;51.460;7.158;2023-04-03T08:43:19;7.80;57.30
13569;DHT22;6856;51.460;7.158;2023-04-03T08:46:06;7.90;56.70
13569;DHT22;6856;51.460;7.158;2023-04-03T08:48:44;8.20;56.70
13569;DHT22;6856;51.460;7.158;2023-04-03T08:51:20;8.10;56.50
13569;DHT22;6856;51.460;7.158;2023-04-03T08:53:56;8.10;56.40
13569;DHT22;6856;51.460;7.158;2023-04-03T08:56:36;8.20;56.30
13569;DHT22;6856;51.460;7.158;2023-04-03T08:59:12;8.30;56.30
13569;DHT22;6856;51.460;7.158;2023-04-03T09:01:57;8.40;56.10
13569;DHT22;6856;51.460;7.158;2023-04-03T09:04:34;8.50;55.80
13569;DHT22;6856;51.460;7.158;2023-04-03T09:07:13;8.50;55.40
13569;DHT22;6856;51.460;7.158;2023-04-03T09:09:52;8.60;55.30
13569;DHT22;6856;51.460;7.158;2023-04-03T09:12:33;8.60;55.20
13569;DHT22;6856;51.460;7.158;2023-04-03T09:15:18;8.70;55.00
13569;DHT22;6856;51.460;7.158;2023-04-03T09:18:16;9.10;54.70
13569;DHT22;6856;51.460;7.158;2023-04-03T09:20:59;8.90;54.50
13569;DHT22;6856;51.460;7.158;2023-04-03T09:23:44;9.00;54.50
13569;DHT22;6856;51.460;7.158;2023-04-03T09:26:24;9.00;54.40
13569;DHT22;6856;51.460;7.158;2023-04-03T09:29:05;9.30;54.60
13569;DHT22;6856;51.460;7.158;2023-04-03T09:31:43;9.30;54.30
13569;DHT22;6856;51.460;7.158;2023-04-03T09:34:23;9.40;54.30
13569;DHT22;6856;51.460;7.158;2023-04-03T09:37:00;9.50;53.90
13569;DHT22;6856;51.460;7.158;2023-04-03T09:39:50;9.70;53.60
13569;DHT22;6856;51.460;7.158;2023-04-03T09:42:30;9.70;53.00
13569;DHT22;6856;51.460;7.158;2023-04-03T09:45:18;10.00;53.40
13569;DHT22;6856;51.460;7.158;2023-04-03T09:48:15;9.80;53.40
13569;DHT22;6856;51.460;7.158;2023-04-03T09:51:01;10.00;52.80
13569;DHT22;6856;51.460;7.158;2023-04-03T09:53:37;10.10;52.40
13569;DHT22;6856;51.460;7.158;2023-04-03T09:56:21;10.10;52.20
13569;DHT22;6856;51.460;7.158;2023-04-03T09:59:12;10.20;52.10
13569;DHT22;6856;51.460;7.158;2023-04-03T10:01:58;10.30;51.70
13569;DHT22;6856;51.460;7.158;2023-04-03T10:04:39;10.30;51.60
13569;DHT22;6856;51.460;7.158;2023-04-03T10:07:30;10.50;52.00
13569;DHT22;6856;51.460;7.158;2023-04-03T10:10:17;10.50;51.80
13569;DHT22;6856;51.460;7.158;2023-04-03T10:13:05;10.60;51.90
13569;DHT22;6856;51.460;7.158;2023-04-03T10:15:48;10.70;52.00
13569;DHT22;6856;51.460;7.158;2023-04-03T10:18:33;10.80;52.20
13569;DHT22;6856;51.460;7.158;2023-04-03T10:21:22;10.90;51.70
13569;DHT22;6856;51.460;7.158;2023-04-03T10:24:13;11.00;51.30
13569;DHT22;6856;51.460;7.158;2023-04-03T10:26:55;11.00;51.00
13569;DHT22;6856;51.460;7.158;2023-04-03T10:29:39;11.10;51.10
13569;DHT22;6856;51.460;7.158;2023-04-03T10:32:30;11.20;51.00
13569;DHT22;6856;51.460;7.158;2023-04-03T10:35:24;11.20;50.60
13569;DHT22;6856;51.460;7.158;2023-04-03T10:38:15;11.30;50.50
13569;DHT22;6856;51.460;7.158;2023-04-03T10:41:00;11.40;50.40
13569;DHT22;6856;51.460;7.158;2023-04-03T10:43:44;11.40;50.20
13569;DHT22;6856;51.460;7.158;2023-04-03T10:46:30;11.50;50.20
13569;DHT22;6856;51.460;7.158;2023-04-03T10:49:26;11.50;50.20
13569;DHT22;6856;51.460;7.158;2023-04-03T10:52:21;11.60;50.00
13569;DHT22;6856;51.460;7.158;2023-04-03T10:55:06;11.60;50.40
13569;DHT22;6856;51.460;7.158;2023-04-03T10:57:56;11.70;50.20
13569;DHT22;6856;51.460;7.158;2023-04-03T11:00:39;11.80;50.20
13569;DHT22;6856;51.460;7.158;2023-04-03T11:03:26;11.90;50.00
13569;DHT22;6856;51.460;7.158;2023-04-03T11:06:09;12.00;50.00
13569;DHT22;6856;51.460;7.158;2023-04-03T11:08:48;12.10;50.00
13569;DHT22;6856;51.460;7.158;2023-04-03T11:11:29;12.10;50.00
13569;DHT22;6856;51.460;7.158;2023-04-03T11:14:15;12.20;49.60
13569;DHT22;6856;51.460;7.158;2023-04-03T11:17:06;12.30;49.00
13569;DHT22;6856;51.460;7.158;2023-04-03T11:19:59;12.40;49.20
13569;DHT22;6856;51.460;7.158;2023-04-03T11:22:42;12.40;49.30
13569;DHT22;6856;51.460;7.158;2023-04-03T11:25:21;12.50;48.80
13569;DHT22;6856;51.460;7.158;2023-04-03T11:28:02;12.50;48.60
13569;DHT22;6856;51.460;7.158;2023-04-03T11:30:43;12.60;49.00
13569;DHT22;6856;51.460;7.158;2023-04-03T11:33:42;12.60;48.40
13569;DHT22;6856;51.460;7.158;2023-04-03T11:36:25;12.70;48.10
13569;DHT22;6856;51.460;7.158;2023-04-03T11:39:17;12.70;48.40
13569;DHT22;6856;51.460;7.158;2023-04-03T11:42:13;12.80;48.10
13569;DHT22;6856;51.460;7.158;2023-04-03T11:44:49;12.90;47.50
13569;DHT22;6856;51.460;7.158;2023-04-03T11:47:49;12.90;48.20
13569;DHT22;6856;51.460;7.158;2023-04-03T11:50:32;13.00;47.20
13569;DHT22;6856;51.460;7.158;2023-04-03T11:53:31;13.00;47.90
13569;DHT22;6856;51.460;7.158;2023-04-03T11:56:32;13.10;47.70
13569;DHT22;6856;51.460;7.158;2023-04-03T11:59:21;13.20;47.60
13569;DHT22;6856;51.460;7.158;2023-04-03T12:01:57;13.20;47.80
13569;DHT22;6856;51.460;7.158;2023-04-03T12:04:33;13.30;48.20
13569;DHT22;6856;51.460;7.158;2023-04-03T12:07:15;13.40;47.80
13569;DHT22;6856;51.460;7.158;2023-04-03T12:09:57;13.40;47.70
13569;DHT22;6856;51.460;7.158;2023-04-03T12:12:41;13.50;47.70
13569;DHT22;6856;51.460;7.158;2023-04-03T12:15:25;13.60;47.30
13569;DHT22;6856;51.460;7.158;2023-04-03T12:18:43;13.60;47.20
13569;DHT22;6856;51.460;7.158;2023-04-03T12:22:08;13.80;46.50
13569;DHT22;6856;51.460;7.158;2023-04-03T12:24:49;13.80;46.40
13569;DHT22;6856;51.460;7.158;2023-04-03T12:27:32;13.90;47.20
13569;DHT22;6856;51.460;7.158;2023-04-03T12:30:22;13.90;46.60
13569;DHT22;6856;51.460;7.158;2023-04-03T12:33:20;13.90;46.40
13569;DHT22;6856;51.460;7.158;2023-04-03T12:36:08;14.00;46.60
13569;DHT22;6856;51.460;7.158;2023-04-03T12:39:18;14.10;47.30
13569;DHT22;6856;51.460;7.158;2023-04-03T12:42:35;14.20;46.00
13569;DHT22;6856;51.460;7.158;2023-04-03T12:45:40;14.20;46.50
13569;DHT22;6856;51.460;7.158;2023-04-03T12:48:18;14.30;46.10
13569;DHT22;6856;51.460;7.158;2023-04-03T12:50:58;14.30;46.20
13569;DHT22;6856;51.460;7.158;2023-04-03T12:53:35;14.30;46.20
13569;DHT22;6856;51.460;7.158;2023-04-03T12:56:23;14.40;45.70
13569;DHT22;6856;51.460;7.158;2023-04-03T12:59:14;14.10;44.80
13569;DHT22;6856;51.460;7.158;2023-04-03T13:01:56;14.40;45.10
13569;DHT22;6856;51.460;7.158;2023-04-03T13:04:38;14.40;45.40
13569;DHT22;6856;51.460;7.158;2023-04-03T13:07:21;14.50;45.30
13569;DHT22;6856;51.460;7.158;2023-04-03T13:10:02;14.50;45.10
13569;DHT22;6856;51.460;7.158;2023-04-03T13:12:50;14.50;45.40
13569;DHT22;6856;51.460;7.158;2023-04-03T13:15:26;14.60;45.10
13569;DHT22;6856;51.460;7.158;2023-04-03T13:18:01;14.60;45.40
13569;DHT22;6856;51.460;7.158;2023-04-03T13:20:36;14.70;44.50
13569;DHT22;6856;51.460;7.158;2023-04-03T13:23:12;14.70;44.90
13569;DHT22;6856;51.460;7.158;2023-04-03T13:25:52;14.70;44.80
13569;DHT22;6856;51.460;7.158;2023-04-03T13:28:29;14.70;45.00
13569;DHT22;6856;51.460;7.158;2023-04-03T13:31:08;14.70;44.90
13569;DHT22;6856;51.460;7.158;2023-04-03T13:33:57;14.70;44.80
13569;DHT22;6856;51.460;7.158;2023-04-03T13:36:37;14.80;44.60
13569;DHT22;6856;51.460;7.158;2023-04-03T13:39:22;14.80;44.60
13569;DHT22;6856;51.460;7.158;2023-04-03T13:42:00;14.80;44.30
13569;DHT22;6856;51.460;7.158;2023-04-03T13:44:49;14.80;44.20
13569;DHT22;6856;51.460;7.158;2023-04-03T13:47:40;14.80;44.30
13569;DHT22;6856;51.460;7.158;2023-04-03T13:50:19;14.80;44.40
13569;DHT22;6856;51.460;7.158;2023-04-03T13:52:55;14.80;44.20
13569;DHT22;6856;51.460;7.158;2023-04-03T13:55:50;14.70;44.20
13569;DHT22;6856;51.460;7.158;2023-04-03T13:58:29;14.70;44.00
13569;DHT22;6856;51.460;7.158;2023-04-03T14:01:14;14.70;44.30
13569;DHT22;6856;51.460;7.158;2023-04-03T14:03:54;14.70;43.80
13569;DHT22;6856;51.460;7.158;2023-04-03T14:06:29;14.80;44.20
13569;DHT22;6856;51.460;7.158;2023-04-03T14:09:03;14.70;43.80
13569;DHT22;6856;51.460;7.158;2023-04-03T14:11:37;14.70;43.70
13569;DHT22;6856;51.460;7.158;2023-04-03T14:14:15;14.70;43.70
13569;DHT22;6856;51.460;7.158;2023-04-03T14:16:54;14.70;43.60
13569;DHT22;6856;51.460;7.158;2023-04-03T14:19:31;14.70;43.70
13569;DHT22;6856;51.460;7.158;2023-04-03T14:22:14;14.60;43.60
13569;DHT22;6856;51.460;7.158;2023-04-03T14:24:50;14.60;43.40
13569;DHT22;6856;51.460;7.158;2023-04-03T14:27:26;14.50;43.60
13569;DHT22;6856;51.460;7.158;2023-04-03T14:30:02;14.50;43.40
13569;DHT22;6856;51.460;7.158;2023-04-03T14:32:41;14.50;43.30
13569;DHT22;6856;51.460;7.158;2023-04-03T14:35:16;14.50;43.30
13569;DHT22;6856;51.460;7.158;2023-04-03T14:37:51;14.40;43.30
13569;DHT22;6856;51.460;7.158;2023-04-03T14:40:26;14.40;43.40
13569;DHT22;6856;51.460;7.158;2023-04-03T14:43:00;14.40;43.40
13569;DHT22;6856;51.460;7.158;2023-04-03T14:45:34;14.40;43.10
13569;DHT22;6856;51.460;7.158;2023-04-03T14:48:17;14.30;43.20
13569;DHT22;6856;51.460;7.158;2023-04-03T14:50:53;14.30;42.70
13569;DHT22;6856;51.460;7.158;2023-04-03T14:53:37;14.20;42.90
13569;DHT22;6856;51.460;7.158;2023-04-03T14:56:13;14.20;43.20
13569;DHT22;6856;51.460;7.158;2023-04-03T14:58:49;14.20;43.10
13569;DHT22;6856;51.460;7.158;2023-04-03T15:01:28;14.20;43.20
13569;DHT22;6856;51.460;7.158;2023-04-03T15:04:08;14.20;43.20
13569;DHT22;6856;51.460;7.158;2023-04-03T15:06:44;14.20;43.30
13569;DHT22;6856;51.460;7.158;2023-04-03T15:09:21;14.20;43.40
13569;DHT22;6856;51.460;7.158;2023-04-03T15:11:56;14.30;43.50
13569;DHT22;6856;51.460;7.158;2023-04-03T15:14:30;14.30;43.50
13569;DHT22;6856;51.460;7.158;2023-04-03T15:17:12;14.30;42.90
13569;DHT22;6856;51.460;7.158;2023-04-03T15:19:49;14.20;43.00
13569;DHT22;6856;51.460;7.158;2023-04-03T15:22:24;14.20;42.90
13569;DHT22;6856;51.460;7.158;2023-04-03T15:24:58;14.20;42.70
13569;DHT22;6856;51.460;7.158;2023-04-03T15:27:32;14.20;42.80
13569;DHT22;6856;51.460;7.158;2023-04-03T15:30:08;14.20;42.70
13569;DHT22;6856;51.460;7.158;2023-04-03T15:32:47;14.10;42.80
13569;DHT22;6856;51.460;7.158;2023-04-03T15:35:23;14.20;42.90
13569;DHT22;6856;51.460;7.158;2023-04-03T15:37:57;14.20;42.70
13569;DHT22;6856;51.460;7.158;2023-04-03T15:40:31;14.20;42.70
13569;DHT22;6856;51.460;7.158;2023-04-03T15:43:05;14.20;42.80
13569;DHT22;6856;51.460;7.158;2023-04-03T15:45:40;14.20;42.40
13569;DHT22;6856;51.460;7.158;2023-04-03T15:48:15;14.20;42.30
13569;DHT22;6856;51.460;7.158;2023-04-03T15:50:52;14.10;42.30
13569;DHT22;6856;51.460;7.158;2023-04-03T15:53:28;14.10;42.50
13569;DHT22;6856;51.460;7.158;2023-04-03T15:56:02;14.10;42.50
13569;DHT22;6856;51.460;7.158;2023-04-03T15:58:36;14.10;42.30
13569;DHT22;6856;51.460;7.158;2023-04-03T16:01:10;14.10;42.30
13569;DHT22;6856;51.460;7.158;2023-04-03T16:03:45;14.10;42.50
13569;DHT22;6856;51.460;7.158;2023-04-03T16:06:20;14.10;42.40
13569;DHT22;6856;51.460;7.158;2023-04-03T16:08:55;14.00;42.10
13569;DHT22;6856;51.460;7.158;2023-04-03T16:11:30;14.00;42.30
13569;DHT22;6856;51.460;7.158;2023-04-03T16:14:04;14.00;42.10
13569;DHT22;6856;51.460;7.158;2023-04-03T16:16:38;14.00;41.90
13569;DHT22;6856;51.460;7.158;2023-04-03T16:19:12;14.00;41.90
13569;DHT22;6856;51.460;7.158;2023-04-03T16:21:48;13.90;41.90
13569;DHT22;6856;51.460;7.158;2023-04-03T16:24:22;13.90;41.70
13569;DHT22;6856;51.460;7.158;2023-04-03T16:26:57;13.90;41.70
13569;DHT22;6856;51.460;7.158;2023-04-03T16:29:31;13.90;41.40
13569;DHT22;6856;51.460;7.158;2023-04-03T16:32:05;13.80;41.50
13569;DHT22;6856;51.460;7.158;2023-04-03T16:34:39;13.80;41.70
13569;DHT22;6856;51.460;7.158;2023-04-03T16:37:15;13.80;41.60
13569;DHT22;6856;51.460;7.158;2023-04-03T16:39:49;13.80;41.50
13569;DHT22;6856;51.460;7.158;2023-04-03T16:42:23;13.80;41.40
13569;DHT22;6856;51.460;7.158;2023-04-03T16:44:58;13.80;41.50
13569;DHT22;6856;51.460;7.158;2023-04-03T16:47:35;13.80;41.40
13569;DHT22;6856;51.460;7.158;2023-04-03T16:50:09;13.80;41.30
13569;DHT22;6856;51.460;7.158;2023-04-03T16:52:45;13.80;41.20
13569;DHT22;6856;51.460;7.158;2023-04-03T16:55:19;13.70;41.20
13569;DHT22;6856;51.460;7.158;2023-04-03T16:57:52;13.70;41.20
13569;DHT22;6856;51.460;7.158;2023-04-03T17:00:26;13.60;41.00
13569;DHT22;6856;51.460;7.158;2023-04-03T17:03:00;13.60;41.00
13569;DHT22;6856;51.460;7.158;2023-04-03T17:05:34;13.60;41.30